Time;durP1;ratioP1;P1;durP2;ratioP2;P2;SDS_P1;SDS_P2;PMS_P1;PMS_P2;Temp;Humidity;BMP_temperature;BMP_pressure;BME280_temperature;BME280_humidity;BME280_pressure;Samples;Min_cycle;Max_cycle;Signal;HPM_P1;HPM_P2
2021/06/12 00:00:15;;;;;;;13.48;8.65;;;19.70;98.30;;;;;;5105497;28;20455;-74
2021/06/12 00:02:42;;;;;;;13.43;9.00;;;19.70;98.30;;;;;;5102921;28;20474;-75
2021/06/12 00:05:10;;;;;;;14.05;9.55;;;19.70;98.40;;;;;;5102782;28;20427;-74
2021/06/12 00:07:36;;;;;;;14.25;9.82;;;19.60;98.60;;;;;;5102987;28;20429;-77
2021/06/12 00:10:07;;;;;;;15.98;9.15;;;19.60;98.60;;;;;;5105124;28;20408;-76
2021/06/12 00:12:35;;;;;;;15.95;9.40;;;19.60;98.70;;;;;;5101370;28;21941;-73
2021/06/12 00:15:01;;;;;;;14.73;9.80;;;19.70;98.70;;;;;;5103839;28;20419;-74
2021/06/12 00:17:28;;;;;;;14.10;9.10;;;19.70;98.70;;;;;;5099255;28;20421;-74
2021/06/12 00:19:54;;;;;;;14.60;8.85;;;19.70;98.70;;;;;;5097946;28;20432;-74
2021/06/12 00:22:20;;;;;;;15.33;8.50;;;19.60;98.50;;;;;;5103639;28;20435;-74
2021/06/12 00:24:46;;;;;;;15.95;8.27;;;19.60;98.60;;;;;;5105581;28;20908;-73
2021/06/12 00:27:13;;;;;;;14.27;7.93;;;19.60;98.60;;;;;;5103356;28;20429;-73
2021/06/12 00:29:41;;;;;;;14.88;7.72;;;19.60;98.50;;;;;;5104612;28;20427;-76
2021/06/12 00:32:08;;;;;;;17.77;8.15;;;19.60;98.50;;;;;;5101584;28;20477;-76
2021/06/12 00:34:34;;;;;;;16.95;8.07;;;19.60;98.50;;;;;;5105208;28;20423;-75
2021/06/12 00:37:00;;;;;;;16.27;8.07;;;19.60;98.70;;;;;;5103180;28;20424;-74
2021/06/12 00:39:27;;;;;;;17.85;8.40;;;19.60;98.70;;;;;;5103076;28;20480;-74
2021/06/12 00:41:53;;;;;;;14.75;7.40;;;19.60;98.80;;;;;;5102605;28;20419;-75
2021/06/12 00:44:19;;;;;;;18.05;7.85;;;19.60;98.80;;;;;;5103009;28;20426;-74
2021/06/12 00:46:47;;;;;;;17.52;7.45;;;19.60;98.90;;;;;;5102485;28;20427;-75
2021/06/12 00:49:13;;;;;;;18.55;7.15;;;19.60;98.90;;;;;;5100457;28;21000;-74
2021/06/12 00:51:40;;;;;;;18.90;7.22;;;19.60;98.90;;;;;;5099925;28;20774;-75
2021/06/12 00:54:06;;;;;;;16.83;7.50;;;19.60;98.90;;;;;;5104646;28;20438;-75
2021/06/12 00:56:33;;;;;;;20.30;7.45;;;19.50;99.00;;;;;;5103852;28;20513;-74
2021/06/12 00:59:00;;;;;;;19.65;7.10;;;19.60;99.10;;;;;;5101324;28;20420;-73
2021/06/12 01:01:26;;;;;;;20.58;6.68;;;19.50;99.00;;;;;;5103024;28;21245;-73
2021/06/12 01:03:54;;;;;;;17.87;7.27;;;19.50;99.00;;;;;;5096719;28;20429;-73
2021/06/12 01:06:20;;;;;;;18.30;7.40;;;19.50;99.20;;;;;;5098427;28;20449;-75
2021/06/12 01:08:47;;;;;;;17.42;7.10;;;19.50;99.20;;;;;;5099911;28;20494;-73
2021/06/12 01:11:15;;;;;;;18.10;7.47;;;19.50;99.20;;;;;;5101329;28;20412;-74
2021/06/12 01:13:51;;;;;;;20.48;7.45;;;19.50;99.10;;;;;;5103160;28;20435;-73
2021/06/12 01:16:26;;;;;;;19.58;7.65;;;19.50;99.00;;;;;;5101537;28;20423;-73
2021/06/12 01:18:56;;;;;;;21.57;8.10;;;19.50;98.90;;;;;;5115834;28;20424;-74
2021/06/12 01:21:33;;;;;;;20.80;7.67;;;19.50;98.90;;;;;;5102052;28;20427;-73
2021/06/12 01:24:30;;;;;;;18.48;7.65;;;19.50;98.80;;;;;;5099104;28;20415;-73
2021/06/12 01:27:09;;;;;;;21.30;7.68;;;19.50;98.70;;;;;;5101578;28;20530;-73
2021/06/12 01:30:04;;;;;;;21.90;7.53;;;19.50;98.60;;;;;;5102768;28;20816;-74
2021/06/12 01:32:33;;;;;;;20.17;7.47;;;19.50;98.60;;;;;;5100213;28;20424;-73
2021/06/12 01:35:03;;;;;;;19.67;7.50;;;19.50;98.60;;;;;;5103923;28;20477;-75
2021/06/12 01:37:31;;;;;;;20.50;7.63;;;19.50;98.60;;;;;;5095996;28;20459;-76
2021/06/12 01:39:58;;;;;;;19.35;7.40;;;19.40;98.70;;;;;;5097324;28;20421;-73
2021/06/12 01:42:25;;;;;;;23.92;7.95;;;19.40;98.80;;;;;;5103504;28;20508;-74
2021/06/12 01:44:52;;;;;;;19.25;7.70;;;19.40;98.80;;;;;;5105369;28;20424;-73
2021/06/12 01:47:21;;;;;;;20.27;7.38;;;19.40;98.70;;;;;;5100242;28;20428;-73
2021/06/12 01:49:49;;;;;;;20.58;7.82;;;19.30;98.70;;;;;;5106124;28;21186;-73
2021/06/12 01:52:16;;;;;;;21.98;7.68;;;19.30;98.80;;;;;;5103001;28;20417;-74
2021/06/12 01:54:44;;;;;;;20.75;7.47;;;19.30;98.90;;;;;;5107889;28;20524;-74
2021/06/12 01:57:11;;;;;;;21.80;8.10;;;19.30;98.90;;;;;;5102772;28;20427;-74
2021/06/12 01:59:40;;;;;;;20.58;7.78;;;19.30;98.90;;;;;;5104062;28;20435;-73
2021/06/12 02:02:07;;;;;;;21.83;8.18;;;19.30;99.00;;;;;;5107048;28;20416;-74
2021/06/12 02:04:38;;;;;;;18.38;7.78;;;19.30;98.90;;;;;;5109575;28;20888;-76
2021/06/12 02:07:07;;;;;;;20.23;8.07;;;19.20;99.00;;;;;;5108666;27;21333;-74
2021/06/12 02:09:36;;;;;;;18.70;7.70;;;19.20;99.00;;;;;;5109658;28;20511;-74
2021/06/12 02:12:05;;;;;;;16.95;7.65;;;19.20;99.00;;;;;;5103517;28;20430;-75
2021/06/12 02:14:33;;;;;;;20.90;7.93;;;19.20;99.10;;;;;;5106509;28;20432;-74
2021/06/12 02:17:00;;;;;;;16.83;8.07;;;19.20;99.20;;;;;;5104931;28;20476;-74
2021/06/12 02:19:27;;;;;;;19.83;8.17;;;19.20;99.20;;;;;;5105960;28;20427;-75
2021/06/12 02:21:55;;;;;;;18.50;7.90;;;19.10;99.20;;;;;;5104752;28;20500;-75
2021/06/12 02:24:22;;;;;;;21.25;7.68;;;19.20;99.30;;;;;;5106117;28;20433;-73
2021/06/12 02:26:53;;;;;;;15.90;6.83;;;19.20;99.30;;;;;;5106193;28;20864;-75
2021/06/12 02:29:20;;;;;;;19.25;6.78;;;19.10;99.30;;;;;;5101879;28;20425;-74
2021/06/12 02:31:50;;;;;;;15.07;6.57;;;19.20;99.20;;;;;;5102006;28;20420;-75
2021/06/12 02:34:17;;;;;;;17.42;6.80;;;19.20;99.10;;;;;;5103482;28;20783;-75
2021/06/12 02:36:45;;;;;;;20.50;7.00;;;19.20;99.00;;;;;;5105519;28;20420;-73
2021/06/12 02:39:13;;;;;;;18.20;6.22;;;19.20;99.00;;;;;;5102635;27;20419;-74
2021/06/12 02:41:39;;;;;;;15.18;5.80;;;19.20;98.90;;;;;;5106604;28;20432;-75
2021/06/12 02:44:06;;;;;;;18.83;6.50;;;19.20;98.80;;;;;;5105330;28;20920;-75
2021/06/12 02:46:37;;;;;;;16.20;5.93;;;19.10;98.80;;;;;;5104991;28;20777;-74
2021/06/12 02:49:07;;;;;;;21.05;6.68;;;19.10;98.80;;;;;;5103221;28;20415;-75
2021/06/12 02:51:35;;;;;;;18.08;6.53;;;19.10;98.80;;;;;;5102787;28;20433;-74
2021/06/12 02:54:02;;;;;;;18.52;6.20;;;19.10;98.90;;;;;;5103252;28;20502;-74
2021/06/12 02:56:32;;;;;;;18.13;6.60;;;19.10;98.90;;;;;;5101428;28;20483;-74
2021/06/12 02:59:02;;;;;;;17.60;6.25;;;19.10;98.80;;;;;;5103182;28;20426;-75
2021/06/12 03:01:30;;;;;;;16.30;5.90;;;19.10;98.90;;;;;;5102929;28;20424;-75
2021/06/12 03:03:57;;;;;;;20.65;6.63;;;19.10;98.90;;;;;;5104838;28;20425;-74
2021/06/12 03:06:24;;;;;;;19.13;6.80;;;19.10;98.80;;;;;;5105335;28;20428;-75
2021/06/12 03:08:52;;;;;;;18.38;6.60;;;19.10;98.80;;;;;;5105949;28;20452;-74
2021/06/12 03:11:20;;;;;;;17.67;6.38;;;19.10;98.70;;;;;;5106819;28;20431;-74
2021/06/12 03:13:50;;;;;;;21.58;6.78;;;19.10;98.70;;;;;;5105289;28;20482;-74
2021/06/12 03:16:18;;;;;;;16.67;6.20;;;19.10;98.70;;;;;;5108002;28;20427;-75
2021/06/12 03:18:47;;;;;;;18.42;6.15;;;19.10;98.60;;;;;;5102826;28;20431;-74
2021/06/12 03:21:15;;;;;;;19.70;6.50;;;19.20;98.50;;;;;;5106848;28;20439;-74
2021/06/12 03:23:42;;;;;;;18.33;6.47;;;19.20;98.40;;;;;;5103796;28;20843;-74
2021/06/12 03:26:10;;;;;;;15.18;6.38;;;19.10;98.30;;;;;;5107849;28;20757;-74
2021/06/12 03:28:38;;;;;;;18.42;6.30;;;19.10;98.30;;;;;;5102123;28;20424;-74
2021/06/12 03:31:06;;;;;;;18.00;6.50;;;19.00;98.40;;;;;;5106913;28;20457;-74
2021/06/12 03:33:33;;;;;;;17.87;6.40;;;19.10;98.30;;;;;;5104408;28;20425;-74
2021/06/12 03:36:00;;;;;;;19.83;6.70;;;19.10;98.30;;;;;;5103851;28;20486;-75
2021/06/12 03:38:29;;;;;;;17.10;5.90;;;19.10;98.30;;;;;;5105582;28;20428;-73
2021/06/12 03:40:56;;;;;;;16.35;5.90;;;19.10;98.20;;;;;;5106098;28;20814;-73
2021/06/12 03:43:24;;;;;;;17.92;6.07;;;19.10;98.00;;;;;;5101908;28;20427;-73
2021/06/12 03:45:54;;;;;;;21.50;6.32;;;19.10;97.90;;;;;;5104461;28;20416;-74
2021/06/12 03:48:23;;;;;;;17.23;6.53;;;19.20;97.80;;;;;;5106032;28;20412;-75
2021/06/12 03:50:51;;;;;;;17.65;6.32;;;19.20;97.70;;;;;;5103761;28;20433;-74
2021/06/12 03:53:18;;;;;;;18.80;6.28;;;19.20;97.70;;;;;;5104858;27;20821;-74
2021/06/12 03:55:46;;;;;;;18.58;6.80;;;19.20;97.60;;;;;;5103107;28;20777;-74
2021/06/12 03:58:13;;;;;;;17.27;6.28;;;19.20;97.60;;;;;;5105327;28;20424;-74
2021/06/12 04:00:39;;;;;;;19.10;6.40;;;19.20;97.50;;;;;;5105796;28;20431;-75
2021/06/12 04:03:06;;;;;;;16.57;6.10;;;19.20;97.40;;;;;;5100252;28;20422;-73
2021/06/12 04:05:34;;;;;;;17.42;6.13;;;19.30;97.30;;;;;;5106877;28;20765;-73
2021/06/12 04:08:01;;;;;;;16.92;8.60;;;19.30;97.10;;;;;;5104442;28;20922;-73
2021/06/12 04:10:27;;;;;;;18.52;6.22;;;19.30;97.00;;;;;;5106348;28;20434;-74
2021/06/12 04:12:54;;;;;;;19.80;6.63;;;19.30;96.90;;;;;;5104355;28;20903;-73
2021/06/12 04:15:20;;;;;;;16.25;6.00;;;19.40;96.70;;;;;;5105279;28;20432;-73
2021/06/12 04:17:47;;;;;;;16.30;5.78;;;19.40;96.60;;;;;;5104191;28;20412;-74
2021/06/12 04:20:14;;;;;;;18.40;6.10;;;19.40;96.40;;;;;;5104094;28;20421;-73
2021/06/12 04:22:43;;;;;;;15.90;5.90;;;19.40;96.30;;;;;;5104715;28;20453;-74
2021/06/12 04:25:10;;;;;;;14.63;5.80;;;19.50;96.30;;;;;;5101778;28;20432;-73
2021/06/12 04:27:39;;;;;;;16.30;5.90;;;19.50;96.00;;;;;;5105878;28;20454;-75
2021/06/12 04:30:06;;;;;;;13.90;5.50;;;19.50;95.90;;;;;;5099344;28;20419;-73
2021/06/12 04:32:33;;;;;;;11.98;5.15;;;19.50;95.70;;;;;;5105071;28;20416;-74
2021/06/12 04:35:00;;;;;;;11.25;5.20;;;19.50;95.60;;;;;;5104888;28;20428;-74
2021/06/12 04:37:26;;;;;;;17.40;5.25;;;19.50;95.50;;;;;;5106738;28;20417;-72
2021/06/12 04:39:54;;;;;;;15.10;4.93;;;19.50;95.30;;;;;;5104413;28;20810;-73
2021/06/12 04:42:21;;;;;;;11.55;5.10;;;19.50;95.10;;;;;;5102606;28;20794;-72
2021/06/12 04:44:47;;;;;;;13.93;4.80;;;19.50;94.90;;;;;;5101017;28;20432;-76
2021/06/12 04:47:13;;;;;;;10.65;4.53;;;19.50;94.70;;;;;;5101527;28;21741;-75
2021/06/12 04:49:40;;;;;;;9.55;4.47;;;19.60;94.30;;;;;;5102658;28;20431;-75
2021/06/12 04:52:06;;;;;;;9.88;4.43;;;19.60;93.90;;;;;;5102358;28;20780;-75
2021/06/12 04:54:33;;;;;;;10.98;4.18;;;19.60;93.70;;;;;;5104078;28;20451;-75
2021/06/12 04:57:01;;;;;;;12.13;4.40;;;19.60;93.50;;;;;;5103884;28;20419;-77
2021/06/12 04:59:27;;;;;;;10.80;4.28;;;19.60;93.10;;;;;;5104236;28;20423;-75
2021/06/12 05:01:54;;;;;;;11.27;4.15;;;19.60;92.90;;;;;;5101897;28;20757;-76
2021/06/12 05:04:20;;;;;;;10.13;3.97;;;19.60;92.80;;;;;;5102954;28;20788;-73
2021/06/12 05:06:46;;;;;;;9.52;3.92;;;19.60;92.40;;;;;;5100048;28;20424;-76
2021/06/12 05:09:17;;;;;;;9.10;4.03;;;19.60;92.00;;;;;;5103561;28;20412;-74
2021/06/12 05:11:43;;;;;;;9.35;3.60;;;19.70;91.90;;;;;;5105212;28;20511;-76
2021/06/12 05:14:11;;;;;;;8.10;3.47;;;19.70;91.70;;;;;;5105101;28;20432;-73
2021/06/12 05:16:39;;;;;;;10.20;3.50;;;19.70;91.40;;;;;;5099527;28;20423;-73
2021/06/12 05:19:05;;;;;;;8.98;3.40;;;19.70;91.20;;;;;;5104715;28;20482;-73
2021/06/12 05:21:33;;;;;;;8.73;3.50;;;19.70;91.00;;;;;;5107451;28;20884;-73
2021/06/12 05:24:00;;;;;;;10.15;3.42;;;19.70;90.50;;;;;;5108066;28;20408;-73
2021/06/12 05:26:27;;;;;;;8.50;3.30;;;19.70;90.50;;;;;;5105926;28;20476;-73
2021/06/12 05:28:53;;;;;;;10.90;3.50;;;19.70;90.20;;;;;;5103700;28;20427;-72
2021/06/12 05:31:22;;;;;;;9.60;3.23;;;19.70;90.10;;;;;;5107079;28;20419;-72
2021/06/12 05:33:48;;;;;;;13.07;4.25;;;19.60;90.00;;;;;;5107930;28;20888;-74
2021/06/12 05:36:15;;;;;;;11.63;3.60;;;19.60;90.00;;;;;;5107970;28;20468;-74
2021/06/12 05:38:42;;;;;;;13.50;3.90;;;19.60;90.00;;;;;;5106601;28;21051;-73
2021/06/12 05:41:08;;;;;;;15.55;3.70;;;19.70;90.00;;;;;;5107482;28;20404;-75
2021/06/12 05:43:35;;;;;;;10.77;3.70;;;19.70;90.00;;;;;;5106286;28;20427;-74
2021/06/12 05:46:02;;;;;;;9.68;3.30;;;19.70;89.90;;;;;;5106928;28;20425;-74
2021/06/12 05:48:29;;;;;;;10.05;3.45;;;19.70;90.00;;;;;;5107341;28;20769;-74
2021/06/12 05:50:56;;;;;;;11.55;3.47;;;19.80;89.50;;;;;;5108339;28;20412;-74
2021/06/12 05:53:22;;;;;;;12.57;3.72;;;19.80;89.20;;;;;;5107883;28;20408;-74
2021/06/12 05:55:49;;;;;;;10.02;3.40;;;19.80;89.30;;;;;;5106837;28;20860;-76
2021/06/12 05:58:15;;;;;;;12.00;3.40;;;19.80;88.90;;;;;;5105217;28;20493;-76
2021/06/12 06:00:41;;;;;;;10.32;3.22;;;19.80;88.10;;;;;;5104392;28;20416;-75
2021/06/12 06:03:08;;;;;;;7.93;3.17;;;19.90;87.80;;;;;;5106806;28;20412;-74
2021/06/12 06:05:35;;;;;;;11.90;3.60;;;19.90;88.20;;;;;;5103387;28;20790;-75
2021/06/12 06:08:02;;;;;;;12.65;3.70;;;19.90;88.10;;;;;;5107737;28;20863;-75
2021/06/12 06:10:28;;;;;;;9.33;3.20;;;19.90;88.30;;;;;;5106915;28;20477;-76
2021/06/12 06:12:55;;;;;;;11.90;3.28;;;19.90;88.40;;;;;;5107636;28;20774;-74
2021/06/12 06:15:21;;;;;;;12.32;3.67;;;19.90;88.10;;;;;;5106986;28;20421;-74
2021/06/12 06:17:47;;;;;;;13.60;3.63;;;19.90;88.50;;;;;;5104959;28;20408;-73
2021/06/12 06:20:14;;;;;;;10.10;3.30;;;19.90;88.10;;;;;;5105421;28;20438;-77
2021/06/12 06:22:42;;;;;;;10.35;3.15;;;19.90;88.30;;;;;;5106227;28;20408;-75
2021/06/12 06:25:10;;;;;;;10.13;3.22;;;19.90;87.60;;;;;;5106160;28;20412;-74
2021/06/12 06:27:37;;;;;;;12.35;3.45;;;19.90;87.60;;;;;;5105831;28;20796;-73
2021/06/12 06:30:05;;;;;;;11.50;3.70;;;19.90;87.90;;;;;;5108304;28;20504;-74
2021/06/12 06:32:32;;;;;;;10.35;3.42;;;19.90;87.90;;;;;;5111568;28;20418;-75
2021/06/12 06:34:59;;;;;;;8.60;3.38;;;19.90;88.20;;;;;;5108836;28;20474;-73
2021/06/12 06:37:25;;;;;;;10.27;3.60;;;20.00;88.50;;;;;;5106848;28;20474;-73
2021/06/12 06:39:53;;;;;;;10.68;3.53;;;20.00;88.20;;;;;;5109860;28;20424;-75
2021/06/12 06:42:20;;;;;;;11.20;3.55;;;20.00;88.20;;;;;;5109960;28;20822;-74
2021/06/12 06:44:47;;;;;;;14.67;3.90;;;20.10;87.70;;;;;;5108855;27;20908;-73
2021/06/12 06:47:13;;;;;;;10.60;3.72;;;20.10;87.30;;;;;;5108801;28;20416;-74
2021/06/12 06:49:40;;;;;;;12.68;3.53;;;20.10;86.80;;;;;;5106028;28;20408;-74
2021/06/12 06:52:07;;;;;;;10.73;3.55;;;20.10;87.10;;;;;;5107233;28;20415;-71
2021/06/12 06:54:34;;;;;;;12.02;3.65;;;20.20;87.00;;;;;;5110517;27;20408;-71
2021/06/12 06:57:02;;;;;;;12.10;3.83;;;20.20;87.30;;;;;;5107785;28;20473;-73
2021/06/12 06:59:30;;;;;;;12.90;3.75;;;20.20;86.60;;;;;;5110372;28;21119;-74
2021/06/12 07:01:57;;;;;;;10.90;3.53;;;20.30;86.10;;;;;;5109096;28;20415;-76
2021/06/12 07:04:23;;;;;;;11.82;3.30;;;20.30;85.00;;;;;;5110001;28;20782;-75
2021/06/12 07:06:50;;;;;;;10.73;3.28;;;20.30;84.10;;;;;;5105549;28;20432;-76
2021/06/12 07:09:17;;;;;;;12.80;3.38;;;20.30;83.50;;;;;;5108155;28;20904;-72
2021/06/12 07:11:43;;;;;;;11.05;3.00;;;20.40;83.20;;;;;;5107578;28;20431;-77
2021/06/12 07:14:11;;;;;;;11.07;3.30;;;20.50;82.00;;;;;;5103368;28;21530;-75
2021/06/12 07:16:38;;;;;;;10.77;3.08;;;20.50;81.20;;;;;;5106543;28;20420;-80
2021/06/12 07:19:05;;;;;;;10.02;3.20;;;20.60;81.00;;;;;;5104732;28;20450;-75
2021/06/12 07:21:31;;;;;;;11.17;3.00;;;20.70;81.20;;;;;;5102003;28;20427;-73
2021/06/12 07:23:58;;;;;;;11.77;2.80;;;20.70;81.10;;;;;;5105972;28;20419;-73
2021/06/12 07:26:25;;;;;;;12.80;3.30;;;20.80;79.40;;;;;;5107701;28;20481;-73
2021/06/12 07:28:51;;;;;;;9.27;2.92;;;20.80;78.70;;;;;;5105569;28;20400;-73
2021/06/12 07:31:19;;;;;;;12.98;3.25;;;20.80;78.30;;;;;;5104030;28;20483;-74
2021/06/12 07:33:46;;;;;;;9.75;3.30;;;20.90;78.30;;;;;;5105339;28;20436;-74
2021/06/12 07:36:13;;;;;;;11.57;3.10;;;20.90;78.20;;;;;;5101118;28;20459;-75
2021/06/12 07:38:39;;;;;;;12.32;3.40;;;20.80;77.90;;;;;;5102377;28;20474;-74
2021/06/12 07:41:06;;;;;;;9.90;3.10;;;20.80;78.50;;;;;;5102590;28;20908;-74
2021/06/12 07:43:33;;;;;;;12.00;3.50;;;20.80;78.60;;;;;;5103947;28;21188;-74
2021/06/12 07:45:59;;;;;;;12.45;3.28;;;20.90;78.50;;;;;;5105261;28;20435;-75
2021/06/12 07:48:27;;;;;;;12.23;3.03;;;20.90;78.70;;;;;;5102473;27;20435;-74
2021/06/12 07:50:54;;;;;;;11.98;2.90;;;20.90;78.50;;;;;;5099317;28;20423;-74
2021/06/12 07:53:21;;;;;;;11.43;3.20;;;20.90;79.60;;;;;;5105680;27;22912;-75
2021/06/12 07:55:47;;;;;;;11.23;3.50;;;21.00;78.60;;;;;;5102841;28;20987;-74
2021/06/12 07:58:14;;;;;;;10.47;3.60;;;20.90;78.00;;;;;;5101213;28;21248;-73
2021/06/12 08:00:41;;;;;;;12.55;3.50;;;20.90;78.50;;;;;;5102849;28;20512;-73
2021/06/12 08:03:08;;;;;;;12.40;2.97;;;21.00;78.90;;;;;;5106008;28;20431;-74
2021/06/12 08:05:36;;;;;;;11.63;3.27;;;21.00;78.70;;;;;;5103742;28;20445;-74
2021/06/12 08:08:03;;;;;;;13.57;3.55;;;21.10;78.60;;;;;;5102236;28;20425;-73
2021/06/12 08:10:29;;;;;;;12.37;3.70;;;21.10;78.60;;;;;;5106101;28;20428;-73
2021/06/12 08:12:56;;;;;;;12.23;3.70;;;21.10;78.70;;;;;;5105000;28;20439;-72
2021/06/12 08:15:23;;;;;;;16.63;3.75;;;21.10;78.60;;;;;;5103736;28;20512;-74
2021/06/12 08:17:50;;;;;;;11.40;3.35;;;21.10;78.30;;;;;;5106524;28;20466;-73
2021/06/12 08:20:17;;;;;;;12.75;3.33;;;21.10;78.50;;;;;;5103751;28;20467;-73
2021/06/12 08:22:46;;;;;;;13.35;3.60;;;21.10;78.20;;;;;;5105096;28;20448;-73
2021/06/12 08:25:13;;;;;;;12.50;3.40;;;21.10;77.80;;;;;;5105475;28;20447;-74
2021/06/12 08:27:40;;;;;;;9.88;3.10;;;21.20;77.70;;;;;;5106082;28;20472;-74
2021/06/12 08:30:08;;;;;;;14.18;3.40;;;21.20;77.50;;;;;;5102703;28;20411;-72
2021/06/12 08:32:35;;;;;;;12.75;3.33;;;21.20;77.00;;;;;;5101748;28;20420;-74
2021/06/12 08:35:01;;;;;;;13.15;3.33;;;21.20;76.60;;;;;;5099654;28;20420;-74
2021/06/12 08:37:28;;;;;;;12.13;3.30;;;21.20;76.70;;;;;;5102677;28;20417;-74
2021/06/12 08:39:56;;;;;;;12.97;3.40;;;21.20;76.70;;;;;;5104172;28;20904;-74
2021/06/12 08:42:23;;;;;;;13.40;3.38;;;21.20;76.00;;;;;;5105584;28;20419;-73
2021/06/12 08:44:52;;;;;;;16.95;4.20;;;21.20;76.50;;;;;;5103630;28;20412;-73
2021/06/12 08:47:19;;;;;;;18.00;3.45;;;21.20;76.60;;;;;;5104901;28;20421;-74
2021/06/12 08:49:46;;;;;;;13.23;3.20;;;21.20;75.90;;;;;;5104946;28;20412;-74
2021/06/12 08:52:13;;;;;;;13.70;3.47;;;21.20;76.00;;;;;;5102830;28;20424;-73
2021/06/12 08:54:41;;;;;;;12.45;3.25;;;21.20;76.00;;;;;;5103722;28;20848;-73
2021/06/12 08:57:10;;;;;;;17.80;3.93;;;21.20;75.30;;;;;;5103418;28;20411;-72
2021/06/12 08:59:37;;;;;;;11.15;3.42;;;21.20;75.70;;;;;;5103627;28;20900;-75
2021/06/12 09:02:05;;;;;;;14.70;3.83;;;21.20;77.10;;;;;;5104144;28;20811;-75
2021/06/12 09:04:33;;;;;;;13.98;3.33;;;21.20;76.50;;;;;;5105618;28;20420;-74
2021/06/12 09:07:21;;;;;;;13.63;3.30;;;21.20;76.70;;;;;;5105739;28;20427;-74
2021/06/12 09:09:49;;;;;;;11.35;2.90;;;21.30;75.70;;;;;;5104944;28;20439;-75
2021/06/12 09:12:18;;;;;;;13.32;2.90;;;21.30;74.40;;;;;;5103492;28;20441;-74
2021/06/12 09:15:09;;;;;;;11.63;3.20;;;21.30;74.40;;;;;;5101133;28;20510;-74
2021/06/12 09:17:40;;;;;;;12.57;3.47;;;21.30;73.80;;;;;;5101983;28;20421;-74
2021/06/12 09:20:08;;;;;;;12.57;3.42;;;21.30;73.90;;;;;;5101840;28;20419;-75
2021/06/12 09:22:35;;;;;;;12.75;3.03;;;21.30;74.90;;;;;;5100815;28;20428;-75
2021/06/12 09:25:02;;;;;;;10.80;2.85;;;21.30;73.90;;;;;;5100891;28;20412;-75
2021/06/12 09:27:30;;;;;;;10.88;2.97;;;21.30;73.90;;;;;;5117315;28;20469;-74
2021/06/12 09:30:00;;;;;;;12.95;3.20;;;21.30;73.30;;;;;;5104621;28;20415;-74
2021/06/12 09:32:29;;;;;;;12.98;2.92;;;21.30;74.10;;;;;;5100720;28;20544;-75
2021/06/12 09:35:02;;;;;;;10.87;3.17;;;21.40;73.50;;;;;;5104149;28;20412;-74
2021/06/12 09:37:29;;;;;;;10.30;3.13;;;21.40;73.40;;;;;;5100691;28;20448;-74
2021/06/12 09:40:00;;;;;;;10.02;3.00;;;21.40;73.60;;;;;;5102330;28;20422;-75
2021/06/12 09:42:45;;;;;;;11.15;3.10;;;21.40;73.20;;;;;;5099710;28;20439;-74
2021/06/12 09:45:14;;;;;;;9.90;3.05;;;21.50;73.70;;;;;;5104536;28;20979;-75
2021/06/12 09:47:41;;;;;;;13.77;3.40;;;21.60;73.40;;;;;;5099542;28;20513;-75
2021/06/12 09:50:10;;;;;;;11.52;3.13;;;21.60;73.40;;;;;;5104802;28;21078;-74
2021/06/12 09:52:45;;;;;;;12.07;3.20;;;21.70;73.10;;;;;;5094605;28;20965;-75
2021/06/12 09:55:22;;;;;;;12.30;3.10;;;21.70;73.20;;;;;;5102088;28;20427;-75
2021/06/12 09:57:51;;;;;;;15.13;3.37;;;21.70;72.70;;;;;;5100577;28;20799;-74
2021/06/12 10:00:27;;;;;;;11.80;3.10;;;21.70;72.10;;;;;;5101401;28;20548;-74
2021/06/12 10:02:56;;;;;;;11.55;3.10;;;21.70;71.60;;;;;;5101701;28;20416;-74
2021/06/12 10:05:23;;;;;;;11.65;3.30;;;21.70;71.60;;;;;;5109446;28;20492;-73
2021/06/12 10:07:53;;;;;;;10.67;2.90;;;21.80;71.70;;;;;;5106579;28;20437;-75
2021/06/12 10:10:20;;;;;;;10.10;2.80;;;21.80;72.00;;;;;;5107334;28;20931;-75
2021/06/12 10:12:47;;;;;;;8.55;2.70;;;21.80;70.60;;;;;;5105293;28;20873;-74
2021/06/12 10:15:17;;;;;;;11.45;3.05;;;21.80;70.40;;;;;;5108921;28;20451;-74
2021/06/12 10:17:47;;;;;;;13.55;3.13;;;21.80;70.80;;;;;;5105826;28;20455;-76
2021/06/12 10:20:15;;;;;;;10.38;2.75;;;21.80;70.90;;;;;;5108178;28;20440;-77
2021/06/12 10:22:43;;;;;;;11.60;2.90;;;21.80;70.70;;;;;;5104987;28;20423;-74
2021/06/12 10:25:11;;;;;;;10.77;2.50;;;21.90;70.70;;;;;;5106496;28;20424;-75
2021/06/12 10:27:39;;;;;;;8.20;2.13;;;21.90;70.60;;;;;;5105866;28;20436;-75
2021/06/12 10:30:09;;;;;;;8.23;2.72;;;21.90;70.20;;;;;;5107682;28;20469;-74
2021/06/12 10:32:42;;;;;;;8.35;2.67;;;21.90;70.30;;;;;;5106180;28;20420;-77
2021/06/12 10:35:10;;;;;;;9.15;2.85;;;22.00;71.30;;;;;;5107153;28;20788;-75
2021/06/12 10:37:57;;;;;;;11.57;3.10;;;22.10;70.40;;;;;;5106200;28;20477;-74
2021/06/12 10:40:39;;;;;;;9.13;3.00;;;22.10;70.30;;;;;;5108414;28;20452;-74
2021/06/12 10:43:07;;;;;;;9.77;2.50;;;22.20;69.50;;;;;;5102508;28;20441;-74
2021/06/12 10:45:34;;;;;;;12.18;2.95;;;22.20;69.40;;;;;;5106727;28;20415;-74
2021/06/12 10:48:02;;;;;;;10.25;3.00;;;22.30;69.10;;;;;;5103983;28;20435;-74
2021/06/12 10:50:44;;;;;;;9.18;2.70;;;22.20;68.00;;;;;;5104945;28;20564;-72
2021/06/12 10:53:32;;;;;;;8.38;2.60;;;22.20;68.30;;;;;;5100989;28;20461;-75
2021/06/12 10:56:00;;;;;;;10.60;2.90;;;22.20;67.70;;;;;;5101638;28;20551;-73
2021/06/12 10:58:46;;;;;;;8.05;2.60;;;22.30;68.10;;;;;;5104688;28;20421;-73
2021/06/12 11:01:20;;;;;;;13.07;2.70;;;22.30;67.80;;;;;;5103688;28;20477;-74
2021/06/12 11:04:02;;;;;;;9.20;2.40;;;22.30;68.50;;;;;;5105046;28;20419;-73
2021/06/12 11:06:34;;;;;;;11.38;2.60;;;22.30;67.20;;;;;;5107087;28;21065;-73
2021/06/12 11:09:37;;;;;;;9.18;2.53;;;22.40;67.80;;;;;;5107081;28;20445;-74
2021/06/12 11:12:19;;;;;;;11.77;2.53;;;22.50;67.60;;;;;;5105792;28;20438;-74
2021/06/12 11:14:56;;;;;;;8.45;2.38;;;22.50;66.50;;;;;;5103188;28;21185;-74
2021/06/12 11:17:22;;;;;;;9.17;2.10;;;22.60;65.10;;;;;;5101571;28;20411;-74
2021/06/12 11:20:11;;;;;;;10.90;2.60;;;22.60;63.90;;;;;;5106486;28;20768;-73
2021/06/12 11:22:39;;;;;;;10.30;3.00;;;22.70;64.70;;;;;;5104170;28;20424;-73
2021/06/12 11:25:53;;;;;;;8.95;2.42;;;22.70;65.50;;;;;;5105536;28;20489;-73
2021/06/12 11:28:25;;;;;;;13.80;3.03;;;22.70;63.80;;;;;;5022046;28;20449;-74
2021/06/12 11:30:53;;;;;;;7.93;2.38;;;22.70;65.40;;;;;;5019349;28;20436;-74
2021/06/12 11:33:35;;;;;;;11.63;2.80;;;22.60;65.70;;;;;;5059243;28;20420;-73
2021/06/12 11:36:06;;;;;;;8.77;2.72;;;22.60;65.50;;;;;;5104454;28;20417;-73
2021/06/12 11:38:34;;;;;;;9.57;2.60;;;22.70;66.20;;;;;;5103926;28;20431;-72
2021/06/12 11:41:06;;;;;;;8.43;2.70;;;22.70;65.10;;;;;;5108071;28;20407;-73
2021/06/12 11:43:37;;;;;;;8.32;2.40;;;22.80;64.60;;;;;;5102945;28;20505;-73
2021/06/12 11:46:07;;;;;;;8.57;2.70;;;22.80;64.70;;;;;;5104742;28;20436;-73
2021/06/12 11:48:38;;;;;;;10.00;2.42;;;22.80;62.80;;;;;;5103360;28;20437;-73
2021/06/12 11:51:17;;;;;;;8.27;2.33;;;22.90;62.50;;;;;;5106781;28;20458;-75
2021/06/12 11:53:59;;;;;;;8.17;2.40;;;22.80;62.50;;;;;;5104627;28;20423;-72
2021/06/12 11:56:31;;;;;;;11.50;2.95;;;22.70;62.70;;;;;;5104515;28;20895;-74
2021/06/12 11:58:58;;;;;;;9.02;2.22;;;22.70;63.60;;;;;;5102857;28;20438;-73
2021/06/12 12:01:43;;;;;;;9.73;2.58;;;22.70;64.80;;;;;;5100263;28;20927;-74
2021/06/12 12:04:12;;;;;;;9.07;2.67;;;22.70;64.70;;;;;;5104473;28;20434;-73
2021/06/12 12:06:45;;;;;;;8.63;2.47;;;22.70;63.70;;;;;;5097950;28;20429;-75
2021/06/12 12:09:21;;;;;;;8.47;2.33;;;22.80;63.80;;;;;;5102219;28;20477;-73
2021/06/12 12:11:50;;;;;;;12.23;2.88;;;22.80;64.70;;;;;;5102910;28;20422;-73
2021/06/12 12:14:16;;;;;;;8.73;2.83;;;22.90;64.70;;;;;;5104711;28;20829;-74
2021/06/12 12:16:44;;;;;;;9.15;2.58;;;23.10;64.50;;;;;;5104201;28;21301;-73
2021/06/12 12:19:11;;;;;;;10.82;3.10;;;23.20;64.10;;;;;;5103500;28;20426;-74
2021/06/12 12:21:41;;;;;;;14.82;3.10;;;23.30;62.70;;;;;;5102840;27;20428;-73
2021/06/12 12:24:09;;;;;;;9.70;2.70;;;23.50;62.10;;;;;;5103016;28;20428;-74
2021/06/12 12:26:37;;;;;;;8.98;2.30;;;23.50;61.60;;;;;;5101779;28;20428;-73
2021/06/12 12:29:06;;;;;;;8.98;2.60;;;23.60;60.10;;;;;;5100514;28;20419;-74
2021/06/12 12:31:40;;;;;;;8.50;2.50;;;23.60;61.00;;;;;;5104279;28;20461;-73
2021/06/12 12:34:07;;;;;;;7.63;2.28;;;23.60;60.80;;;;;;5101318;28;20427;-73
2021/06/12 12:36:43;;;;;;;7.45;2.05;;;23.70;60.20;;;;;;5103584;28;20514;-73
2021/06/12 12:39:11;;;;;;;10.18;2.30;;;23.80;59.20;;;;;;5097175;28;20889;-74
2021/06/12 12:41:38;;;;;;;9.35;2.50;;;23.80;58.60;;;;;;5102390;28;20427;-74
2021/06/12 12:44:12;;;;;;;5.78;2.00;;;23.90;58.40;;;;;;5099168;28;20898;-74
2021/06/12 12:46:40;;;;;;;8.20;2.60;;;24.00;57.40;;;;;;5102564;28;20616;-72